Time;durP1;ratioP1;P1;durP2;ratioP2;P2;SDS_P1;SDS_P2;PMS_P1;PMS_P2;Temp;Humidity;BMP_temperature;BMP_pressure;BME280_temperature;BME280_humidity;BME280_pressure;Samples;Min_cycle;Max_cycle;Signal;HPM_P1;HPM_P2
2023/07/24 00:00:17;;;;;;;19.25;12.13;;;;;;;;;;4916468;29;20092;-79
2023/07/24 00:02:43;;;;;;;22.05;12.68;;;;;;;;;;4909191;29;20040;-79
2023/07/24 00:05:10;;;;;;;21.63;14.15;;;;;;;;;;4912104;29;20047;-79
2023/07/24 00:07:36;;;;;;;26.35;16.08;;;;;;;;;;4916264;29;20036;-79
2023/07/24 00:10:02;;;;;;;23.70;14.10;;;;;;;;;;4915523;29;20051;-79
2023/07/24 00:12:28;;;;;;;23.83;14.55;;;;;;;;;;4928209;29;20525;-79
2023/07/24 00:14:54;;;;;;;20.95;13.80;;;;;;;;;;4925808;29;20036;-79
2023/07/24 00:17:20;;;;;;;22.92;14.07;;;;;;;;;;4904748;29;20040;-79
2023/07/24 00:19:46;;;;;;;24.90;15.25;;;;;;;;;;4909107;29;20047;-79
2023/07/24 00:22:12;;;;;;;21.40;13.95;;;;;;;;;;4914654;29;20036;-79
2023/07/24 00:24:38;;;;;;;20.15;13.88;;;;;;;;;;4905475;29;20373;-79
2023/07/24 00:27:04;;;;;;;26.17;14.35;;;;;;;;;;4906972;29;20025;-79
2023/07/24 00:29:30;;;;;;;22.50;16.20;;;;;;;;;;4893475;29;20072;-79
2023/07/24 00:31:56;;;;;;;24.45;15.18;;;;;;;;;;4898881;29;20576;-79
2023/07/24 00:34:22;;;;;;;26.55;15.20;;;;;;;;;;4906505;29;20063;-79
2023/07/24 00:36:48;;;;;;;21.08;13.95;;;;;;;;;;4899063;29;20036;-79
2023/07/24 00:39:17;;;;;;;20.58;13.30;;;;;;;;;;4913242;29;20653;-79
2023/07/24 00:41:44;;;;;;;21.10;11.70;;;;;;;;;;4900490;29;20033;-79
2023/07/24 00:44:10;;;;;;;17.77;11.10;;;;;;;;;;4900489;29;20019;-79
2023/07/24 00:46:36;;;;;;;21.45;12.77;;;;;;;;;;4914285;29;20427;-79
2023/07/24 00:49:03;;;;;;;25.48;14.77;;;;;;;;;;4916544;29;20396;-79
2023/07/24 00:51:29;;;;;;;22.05;14.30;;;;;;;;;;4909853;29;20044;-79
2023/07/24 00:53:56;;;;;;;22.17;13.18;;;;;;;;;;4898300;29;20032;-79
2023/07/24 00:56:22;;;;;;;26.27;14.85;;;;;;;;;;4904460;29;20049;-79
2023/07/24 00:58:49;;;;;;;23.65;14.40;;;;;;;;;;4904544;29;20036;-79
2023/07/24 01:01:16;;;;;;;23.50;14.13;;;;;;;;;;4892459;29;20033;-79
2023/07/24 01:03:43;;;;;;;21.15;13.48;;;;;;;;;;4905058;29;20028;-79
2023/07/24 01:06:09;;;;;;;18.90;13.48;;;;;;;;;;4909727;29;20039;-79
2023/07/24 01:08:35;;;;;;;26.17;14.85;;;;;;;;;;4913210;29;20493;-79
2023/07/24 01:11:09;;;;;;;23.50;13.60;;;;;;;;;;4906958;29;20043;-79
2023/07/24 01:13:39;;;;;;;22.95;14.88;;;;;;;;;;4899194;29;20053;-79
2023/07/24 01:16:09;;;;;;;24.65;14.65;;;;;;;;;;4912229;29;20043;-79
2023/07/24 01:18:37;;;;;;;23.52;14.57;;;;;;;;;;4905294;29;20032;-79
2023/07/24 01:21:05;;;;;;;21.80;13.18;;;;;;;;;;4907091;29;20040;-79
2023/07/24 01:23:31;;;;;;;23.33;14.10;;;;;;;;;;4909117;29;20043;-79
2023/07/24 01:25:58;;;;;;;23.50;14.10;;;;;;;;;;4913138;29;20036;-79
2023/07/24 01:28:24;;;;;;;22.42;13.43;;;;;;;;;;4905719;29;20032;-79
2023/07/24 01:30:51;;;;;;;27.08;13.98;;;;;;;;;;4905743;29;20045;-79
2023/07/24 01:33:17;;;;;;;24.83;14.02;;;;;;;;;;4896064;29;20040;-79
2023/07/24 01:35:44;;;;;;;23.40;13.65;;;;;;;;;;4893276;29;20036;-79
2023/07/24 01:38:16;;;;;;;22.48;13.43;;;;;;;;;;4900657;29;20041;-79
2023/07/24 01:40:42;;;;;;;;;;;;;;;;;;4908856;29;20176;-79
2023/07/24 01:43:08;;;;;;;26.58;13.15;;;;;;;;;;4883255;29;19993;-79
2023/07/24 01:45:34;;;;;;;21.45;13.52;;;;;;;;;;4900702;29;20601;-79
2023/07/24 01:48:00;;;;;;;20.25;12.52;;;;;;;;;;4903499;29;20059;-79
2023/07/24 01:50:26;;;;;;;18.40;12.73;;;;;;;;;;4911412;29;20067;-79
2023/07/24 01:52:52;;;;;;;17.23;11.50;;;;;;;;;;4890220;29;20070;-79
2023/07/24 01:55:18;;;;;;;20.65;12.45;;;;;;;;;;4892810;29;20646;-79
2023/07/24 01:57:44;;;;;;;19.10;12.32;;;;;;;;;;4902388;29;20043;-80
2023/07/24 02:00:10;;;;;;;23.38;13.13;;;;;;;;;;4894913;29;20147;-80
2023/07/24 02:02:36;;;;;;;20.15;13.20;;;;;;;;;;4914321;29;20064;-79
2023/07/24 02:05:02;;;;;;;23.85;12.68;;;;;;;;;;4904157;29;20080;-79
2023/07/24 02:07:28;;;;;;;20.38;12.68;;;;;;;;;;4909248;29;20028;-79
2023/07/24 02:09:55;;;;;;;21.67;13.50;;;;;;;;;;4909392;29;20052;-79
2023/07/24 02:12:21;;;;;;;21.15;12.90;;;;;;;;;;4906256;29;20134;-80
2023/07/24 02:14:49;;;;;;;19.05;12.20;;;;;;;;;;4888535;29;20201;-79
2023/07/24 02:17:15;;;;;;;22.77;12.30;;;;;;;;;;4894868;29;20036;-79
2023/07/24 02:19:42;;;;;;;20.80;11.98;;;;;;;;;;4910540;29;20153;-79
2023/07/24 02:22:08;;;;;;;21.30;12.25;;;;;;;;;;4898751;29;20422;-79
2023/07/24 02:24:34;;;;;;;23.88;12.70;;;;;;;;;;4916358;29;20115;-79
2023/07/24 02:27:00;;;;;;;20.52;12.57;;;;;;;;;;4895271;29;20151;-80
2023/07/24 02:29:27;;;;;;;23.05;12.65;;;;;;;;;;4910194;29;20032;-79
2023/07/24 02:31:53;;;;;;;22.58;13.68;;;;;;;;;;4894011;29;20063;-79
2023/07/24 02:34:24;;;;;;;23.17;12.77;;;;;;;;;;4894162;29;20032;-80
2023/07/24 02:36:50;;;;;;;17.35;9.80;;;;;;;;;;4894281;29;20037;-79
2023/07/24 02:39:16;;;;;;;22.10;10.43;;;;;;;;;;4905410;29;20255;-79
2023/07/24 02:41:42;;;;;;;42.10;12.07;;;;;;;;;;4895513;29;20036;-79
2023/07/24 02:44:08;;;;;;;20.08;12.02;;;;;;;;;;4910048;29;20074;-79
2023/07/24 02:46:34;;;;;;;16.85;11.07;;;;;;;;;;4900947;29;20102;-78
2023/07/24 02:49:00;;;;;;;26.13;11.13;;;;;;;;;;4900816;29;20036;-79
2023/07/24 02:51:26;;;;;;;20.90;9.05;;;;;;;;;;4916435;29;20408;-79
2023/07/24 02:53:53;;;;;;;19.52;10.38;;;;;;;;;;4897933;29;20036;-79
2023/07/24 02:56:20;;;;;;;27.05;10.55;;;;;;;;;;4896390;29;20406;-80
2023/07/24 02:58:46;;;;;;;26.92;10.02;;;;;;;;;;4911223;29;20115;-81
2023/07/24 03:01:14;;;;;;;25.38;10.48;;;;;;;;;;4916035;29;20044;-80
2023/07/24 03:03:40;;;;;;;30.92;12.80;;;;;;;;;;4914987;29;20032;-81
2023/07/24 03:06:06;;;;;;;39.17;16.40;;;;;;;;;;4916710;29;20207;-80
2023/07/24 03:08:32;;;;;;;19.98;9.85;;;;;;;;;;4907778;29;20028;-80
2023/07/24 03:10:58;;;;;;;19.10;8.57;;;;;;;;;;4916050;29;20051;-79
2023/07/24 03:13:24;;;;;;;19.50;8.65;;;;;;;;;;4915957;29;20068;-80
2023/07/24 03:15:57;;;;;;;15.98;8.27;;;;;;;;;;4915459;29;20044;-79
2023/07/24 03:18:23;;;;;;;18.77;9.60;;;;;;;;;;4912091;29;20037;-80
2023/07/24 03:20:49;;;;;;;16.88;8.82;;;;;;;;;;4903162;29;20047;-80
2023/07/24 03:23:15;;;;;;;15.93;9.35;;;;;;;;;;4905848;29;20029;-80
2023/07/24 03:25:41;;;;;;;16.35;8.50;;;;;;;;;;4911986;29;20040;-80
2023/07/24 03:28:07;;;;;;;14.32;9.50;;;;;;;;;;4886970;29;20124;-79
2023/07/24 03:30:33;;;;;;;12.52;5.90;;;;;;;;;;4901655;29;20123;-79
2023/07/24 03:33:00;;;;;;;11.68;7.30;;;;;;;;;;4905274;29;20855;-79
2023/07/24 03:35:27;;;;;;;13.60;6.35;;;;;;;;;;4903296;29;20040;-79
2023/07/24 03:37:53;;;;;;;12.02;6.13;;;;;;;;;;4907731;29;20375;-80
2023/07/24 03:40:19;;;;;;;10.80;4.47;;;;;;;;;;4906035;29;20051;-79
2023/07/24 03:42:45;;;;;;;9.80;5.65;;;;;;;;;;4914727;29;20043;-79
2023/07/24 03:45:11;;;;;;;12.18;5.43;;;;;;;;;;4908340;29;20040;-79
2023/07/24 03:47:36;;;;;;;9.25;5.10;;;;;;;;;;4896808;29;20029;-79
2023/07/24 03:50:03;;;;;;;11.68;4.97;;;;;;;;;;4904114;29;20040;-79
2023/07/24 03:52:28;;;;;;;10.18;4.93;;;;;;;;;;4907348;29;20028;-78
2023/07/24 03:54:54;;;;;;;7.00;4.05;;;;;;;;;;4906622;29;20048;-79
2023/07/24 03:57:21;;;;;;;9.48;4.32;;;;;;;;;;4907040;29;20140;-79
2023/07/24 03:59:47;;;;;;;6.65;3.70;;;;;;;;;;4894575;29;20052;-79
2023/07/24 04:02:13;;;;;;;12.32;5.95;;;;;;;;;;4896256;29;20056;-79
2023/07/24 04:04:39;;;;;;;10.73;5.50;;;;;;;;;;4899546;29;20071;-81
2023/07/24 04:07:05;;;;;;;11.43;6.28;;;;;;;;;;4914742;29;20057;-79
2023/07/24 04:09:31;;;;;;;14.60;5.75;;;;;;;;;;4899513;29;20051;-79
2023/07/24 04:11:57;;;;;;;11.00;5.65;;;;;;;;;;4896158;29;20818;-79
2023/07/24 04:14:23;;;;;;;16.85;5.93;;;;;;;;;;4904011;29;20039;-79
2023/07/24 04:16:49;;;;;;;13.38;5.70;;;;;;;;;;4907540;29;20036;-79
2023/07/24 04:19:15;;;;;;;13.50;6.43;;;;;;;;;;4908636;29;20048;-78
2023/07/24 04:21:41;;;;;;;11.68;5.18;;;;;;;;;;4914275;29;20031;-79
2023/07/24 04:24:07;;;;;;;12.63;4.97;;;;;;;;;;4914230;29;20131;-79
2023/07/24 04:26:33;;;;;;;8.88;4.78;;;;;;;;;;4904272;29;20104;-79
2023/07/24 04:28:59;;;;;;;7.55;3.85;;;;;;;;;;4900797;29;20064;-79
2023/07/24 04:31:25;;;;;;;10.50;4.60;;;;;;;;;;4920295;29;20488;-80
2023/07/24 04:33:51;;;;;;;11.98;4.45;;;;;;;;;;4914357;29;20066;-79
2023/07/24 04:36:17;;;;;;;11.63;4.97;;;;;;;;;;4905425;29;20380;-80
2023/07/24 04:38:43;;;;;;;9.48;4.53;;;;;;;;;;4897613;29;20036;-80
2023/07/24 04:41:09;;;;;;;8.02;3.67;;;;;;;;;;4902323;29;20103;-80
2023/07/24 04:43:35;;;;;;;8.32;4.38;;;;;;;;;;4888916;29;20037;-80
2023/07/24 04:46:01;;;;;;;8.35;4.10;;;;;;;;;;4910560;29;20081;-80
2023/07/24 04:48:27;;;;;;;10.73;5.00;;;;;;;;;;4901505;29;20077;-80
2023/07/24 04:50:55;;;;;;;12.57;4.65;;;;;;;;;;4903901;29;20040;-80
2023/07/24 04:53:21;;;;;;;14.55;4.75;;;;;;;;;;4901751;29;20494;-80
2023/07/24 04:55:48;;;;;;;7.25;4.45;;;;;;;;;;4908583;29;20048;-80
2023/07/24 04:58:14;;;;;;;7.55;3.95;;;;;;;;;;4913195;29;20574;-79
2023/07/24 05:00:40;;;;;;;7.22;3.83;;;;;;;;;;4885366;29;20096;-79
2023/07/24 05:03:08;;;;;;;7.93;4.40;;;;;;;;;;4895261;29;20460;-80
2023/07/24 05:05:34;;;;;;;8.02;4.00;;;;;;;;;;4905358;29;20032;-79
2023/07/24 05:08:00;;;;;;;10.07;4.72;;;;;;;;;;4901169;29;20036;-80
2023/07/24 05:10:26;;;;;;;9.27;3.95;;;;;;;;;;4900212;29;20040;-79
2023/07/24 05:12:56;;;;;;;10.70;3.75;;;;;;;;;;4910776;29;20060;-80
2023/07/24 05:15:22;;;;;;;13.55;3.60;;;;;;;;;;4895188;29;20067;-80
2023/07/24 05:17:48;;;;;;;7.45;3.53;;;;;;;;;;4894683;29;20077;-80
2023/07/24 05:20:14;;;;;;;8.30;3.38;;;;;;;;;;4910510;29;20036;-80
2023/07/24 05:22:40;;;;;;;7.05;3.40;;;;;;;;;;4915661;29;20036;-81
2023/07/24 05:25:06;;;;;;;12.20;5.35;;;;;;;;;;4880708;29;20100;-80
2023/07/24 05:27:32;;;;;;;11.18;5.32;;;;;;;;;;4879805;29;20032;-80
2023/07/24 05:29:58;;;;;;;8.35;4.00;;;;;;;;;;4895125;29;20489;-80
2023/07/24 05:32:24;;;;;;;12.65;5.15;;;;;;;;;;4904546;29;20040;-80
2023/07/24 05:34:50;;;;;;;11.20;5.28;;;;;;;;;;4905918;29;20040;-80
2023/07/24 05:37:16;;;;;;;7.78;4.40;;;;;;;;;;4899771;29;20045;-80
2023/07/24 05:39:42;;;;;;;11.65;6.00;;;;;;;;;;4909570;29;20119;-80
2023/07/24 05:42:08;;;;;;;12.65;5.50;;;;;;;;;;4903422;29;20544;-80
2023/07/24 05:44:37;;;;;;;12.18;3.75;;;;;;;;;;4894316;29;20068;-80
2023/07/24 05:47:03;;;;;;;8.25;4.22;;;;;;;;;;4907425;29;20028;-80
2023/07/24 05:49:29;;;;;;;10.93;4.72;;;;;;;;;;4904037;29;21170;-80
2023/07/24 05:51:56;;;;;;;11.57;4.60;;;;;;;;;;4903595;29;20750;-81
2023/07/24 05:54:22;;;;;;;8.18;4.35;;;;;;;;;;4908720;29;20051;-80
2023/07/24 05:56:48;;;;;;;10.43;5.30;;;;;;;;;;4911091;29;20487;-81
2023/07/24 05:59:14;;;;;;;11.32;4.70;;;;;;;;;;4906598;29;20028;-81
2023/07/24 06:01:40;;;;;;;11.38;5.40;;;;;;;;;;4891604;29;20532;-80
2023/07/24 06:04:07;;;;;;;15.48;4.68;;;;;;;;;;4912971;29;20034;-80
2023/07/24 06:06:33;;;;;;;11.25;3.55;;;;;;;;;;4911400;29;20066;-80
2023/07/24 06:08:59;;;;;;;10.82;5.20;;;;;;;;;;4900008;29;20064;-80
2023/07/24 06:11:26;;;;;;;12.63;5.47;;;;;;;;;;4903916;29;20065;-79
2023/07/24 06:13:52;;;;;;;12.00;5.88;;;;;;;;;;4910131;29;20040;-80
2023/07/24 06:16:18;;;;;;;17.08;6.20;;;;;;;;;;4910665;29;20035;-81
2023/07/24 06:18:45;;;;;;;13.82;5.38;;;;;;;;;;4907272;29;20032;-80
2023/07/24 06:21:11;;;;;;;9.75;5.57;;;;;;;;;;4896278;29;20039;-81
2023/07/24 06:23:37;;;;;;;11.63;4.95;;;;;;;;;;4914783;29;20040;-82
2023/07/24 06:26:03;;;;;;;9.88;4.22;;;;;;;;;;4917483;29;20036;-82
2023/07/24 06:28:29;;;;;;;10.27;4.75;;;;;;;;;;4893002;29;20127;-82
2023/07/24 06:30:55;;;;;;;8.32;4.07;;;;;;;;;;4893603;29;20570;-82
2023/07/24 06:33:21;;;;;;;8.13;3.50;;;;;;;;;;4893737;29;20056;-82
2023/07/24 06:35:51;;;;;;;6.57;3.55;;;;;;;;;;4893153;29;20421;-83
2023/07/24 06:38:17;;;;;;;9.25;3.60;;;;;;;;;;4890192;29;20064;-82
2023/07/24 06:40:43;;;;;;;14.43;3.78;;;;;;;;;;4892955;29;20120;-83
2023/07/24 06:43:09;;;;;;;7.00;3.40;;;;;;;;;;4890425;29;20054;-82
2023/07/24 06:45:35;;;;;;;8.65;2.63;;;;;;;;;;4911554;29;20428;-83
2023/07/24 06:48:01;;;;;;;8.27;2.53;;;;;;;;;;4916116;29;20032;-82
2023/07/24 06:50:27;;;;;;;4.80;2.22;;;;;;;;;;4914456;29;20428;-82
2023/07/24 06:52:53;;;;;;;9.73;3.03;;;;;;;;;;4915498;29;20036;-81
2023/07/24 06:55:19;;;;;;;8.02;3.38;;;;;;;;;;4898127;29;20040;-81
2023/07/24 06:57:46;;;;;;;7.82;3.30;;;;;;;;;;4915850;29;20032;-83
2023/07/24 07:00:12;;;;;;;10.27;3.22;;;;;;;;;;4906195;29;20072;-83
2023/07/24 07:02:38;;;;;;;6.10;2.58;;;;;;;;;;4890783;29;20059;-85
2023/07/24 07:05:05;;;;;;;6.18;3.08;;;;;;;;;;4898203;29;20817;-85
2023/07/24 07:07:31;;;;;;;5.25;2.45;;;;;;;;;;4898435;29;20126;-85
2023/07/24 07:09:57;;;;;;;8.00;3.40;;;;;;;;;;4907972;29;20067;-84
2023/07/24 07:12:23;;;;;;;6.78;3.50;;;;;;;;;;4913781;29;20062;-84
2023/07/24 07:15:37;;;;;;;5.60;2.90;;;;;;;;;;4897465;29;20032;-85
2023/07/24 07:20:49;;;;;;;7.47;3.63;;;;;;;;;;4907295;29;20479;-84
2023/07/24 07:23:15;;;;;;;8.90;3.65;;;;;;;;;;4914929;29;20064;-85
2023/07/24 07:25:43;;;;;;;7.35;3.85;;;;;;;;;;4897556;29;20091;-83
2023/07/24 07:28:09;;;;;;;7.10;3.67;;;;;;;;;;4897048;29;20064;-84
2023/07/24 07:30:35;;;;;;;11.73;4.15;;;;;;;;;;4903342;29;20041;-84
2023/07/24 07:33:01;;;;;;;9.88;3.85;;;;;;;;;;4924981;29;20747;-84
2023/07/24 07:35:27;;;;;;;12.68;4.20;;;;;;;;;;4901267;29;20120;-83
2023/07/24 07:37:53;;;;;;;7.65;3.50;;;;;;;;;;4899281;29;20048;-84
2023/07/24 07:40:19;;;;;;;7.85;3.30;;;;;;;;;;4892969;29;20486;-84
2023/07/24 07:42:45;;;;;;;8.23;4.10;;;;;;;;;;4893941;29;20036;-84
2023/07/24 07:45:12;;;;;;;7.38;3.35;;;;;;;;;;4893768;29;20052;-83
2023/07/24 07:47:38;;;;;;;9.02;4.10;;;;;;;;;;4906834;29;20028;-84
2023/07/24 07:50:04;;;;;;;8.43;4.20;;;;;;;;;;4908755;29;20031;-84
2023/07/24 07:52:30;;;;;;;10.80;4.50;;;;;;;;;;4900608;29;20050;-84
2023/07/24 07:54:56;;;;;;;6.85;3.13;;;;;;;;;;4890808;29;20044;-83
2023/07/24 07:57:22;;;;;;;8.82;3.58;;;;;;;;;;4887823;29;20559;-83
2023/07/24 07:59:48;;;;;;;7.32;3.95;;;;;;;;;;4905824;29;20033;-82
2023/07/24 08:02:13;;;;;;;7.07;2.90;;;;;;;;;;4908334;29;20024;-83
2023/07/24 08:04:40;;;;;;;5.55;2.50;;;;;;;;;;4911019;29;20064;-82
2023/07/24 08:07:06;;;;;;;10.02;3.50;;;;;;;;;;4889294;29;20059;-82
2023/07/24 08:09:33;;;;;;;12.30;3.38;;;;;;;;;;4893439;29;20040;-82
2023/07/24 08:11:59;;;;;;;10.70;3.88;;;;;;;;;;4886360;29;20574;-83
2023/07/24 08:14:25;;;;;;;11.20;3.58;;;;;;;;;;4904886;29;20039;-82
2023/07/24 08:16:52;;;;;;;10.57;4.30;;;;;;;;;;4904901;29;20036;-82
2023/07/24 08:19:18;;;;;;;12.77;4.68;;;;;;;;;;4910962;29;20429;-83
2023/07/24 08:21:44;;;;;;;9.43;3.90;;;;;;;;;;4908641;29;20032;-83
2023/07/24 08:24:10;;;;;;;10.95;4.57;;;;;;;;;;4910457;29;20090;-83
2023/07/24 08:26:38;;;;;;;8.90;4.00;;;;;;;;;;4891141;29;20032;-83
2023/07/24 08:29:04;;;;;;;8.63;3.60;;;;;;;;;;4891278;29;20055;-82
2023/07/24 08:31:30;;;;;;;14.88;4.28;;;;;;;;;;4896259;29;20748;-83
2023/07/24 08:33:56;;;;;;;9.13;3.75;;;;;;;;;;4912962;29;20036;-82
2023/07/24 08:36:22;;;;;;;11.35;3.95;;;;;;;;;;4888663;29;20032;-81
2023/07/24 08:38:48;;;;;;;12.23;3.83;;;;;;;;;;4905379;29;20032;-82
2023/07/24 08:41:15;;;;;;;8.73;2.90;;;;;;;;;;4906501;29;20047;-82
2023/07/24 08:43:42;;;;;;;9.52;3.40;;;;;;;;;;4893124;29;20032;-82
2023/07/24 08:46:09;;;;;;;6.03;2.75;;;;;;;;;;4903805;29;20040;-82
2023/07/24 08:48:36;;;;;;;9.35;3.05;;;;;;;;;;4904078;29;20114;-82
2023/07/24 08:51:03;;;;;;;11.98;3.38;;;;;;;;;;4918389;29;20096;-82
2023/07/24 08:53:36;;;;;;;9.98;4.22;;;;;;;;;;4901834;29;20580;-82
2023/07/24 08:56:03;;;;;;;9.02;3.65;;;;;;;;;;4890746;29;21585;-82
2023/07/24 08:58:29;;;;;;;12.20;4.10;;;;;;;;;;4903816;29;20041;-82
2023/07/24 09:00:59;;;;;;;9.13;3.83;;;;;;;;;;4902280;29;20043;-82
2023/07/24 09:03:25;;;;;;;8.52;3.30;;;;;;;;;;4913128;29;20592;-83
2023/07/24 09:05:51;;;;;;;10.40;4.85;;;;;;;;;;4912708;29;20104;-83
2023/07/24 09:08:17;;;;;;;7.45;4.07;;;;;;;;;;4899244;29;20202;-83
2023/07/24 09:10:43;;;;;;;8.82;3.20;;;;;;;;;;4906644;29;20040;-83
2023/07/24 09:13:12;;;;;;;9.52;3.88;;;;;;;;;;4888500;29;20071;-82
2023/07/24 09:15:42;;;;;;;9.00;3.80;;;;;;;;;;4911983;29;20032;-83
2023/07/24 09:18:08;;;;;;;14.05;4.57;;;;;;;;;;4911393;29;20050;-83
2023/07/24 09:20:41;;;;;;;13.70;5.53;;;;;;;;;;4911976;29;20491;-83
2023/07/24 09:23:08;;;;;;;32.10;10.15;;;;;;;;;;4887005;29;20040;-83
2023/07/24 09:25:35;;;;;;;16.92;6.55;;;;;;;;;;4902587;29;20042;-84
2023/07/24 09:28:01;;;;;;;11.57;5.70;;;;;;;;;;4906685;29;20040;-85
2023/07/24 09:30:27;;;;;;;12.85;5.55;;;;;;;;;;4892596;29;20040;-84
2023/07/24 09:32:53;;;;;;;12.88;5.60;;;;;;;;;;4891144;29;20029;-84
2023/07/24 09:35:20;;;;;;;16.30;5.10;;;;;;;;;;4910433;29;20101;-84
2023/07/24 09:37:47;;;;;;;16.08;4.85;;;;;;;;;;4908276;29;20044;-84
2023/07/24 09:40:14;;;;;;;9.23;4.38;;;;;;;;;;4893528;29;20051;-84
2023/07/24 09:42:50;;;;;;;12.43;5.15;;;;;;;;;;4892142;29;20035;-85
2023/07/24 09:45:16;;;;;;;19.05;5.97;;;;;;;;;;4893970;29;20048;-85
2023/07/24 09:47:42;;;;;;;14.73;5.40;;;;;;;;;;4889182;29;20477;-86
2023/07/24 09:50:09;;;;;;;13.82;5.72;;;;;;;;;;4892377;29;20514;-86
2023/07/24 09:52:37;;;;;;;13.57;6.05;;;;;;;;;;4894658;29;20488;-84
2023/07/24 09:55:16;;;;;;;15.00;5.80;;;;;;;;;;4910562;29;20048;-84
2023/07/24 09:57:42;;;;;;;18.17;6.75;;;;;;;;;;4887306;29;20488;-85
2023/07/24 10:00:08;;;;;;;18.52;6.93;;;;;;;;;;4906962;29;20388;-82
2023/07/24 10:02:34;;;;;;;14.68;6.80;;;;;;;;;;4898302;29;20083;-83
2023/07/24 10:05:01;;;;;;;13.82;6.15;;;;;;;;;;4899880;29;20036;-84
2023/07/24 10:07:27;;;;;;;17.92;6.47;;;;;;;;;;4905510;29;20414;-83
2023/07/24 10:09:54;;;;;;;14.52;6.20;;;;;;;;;;4903376;29;20054;-84
2023/07/24 10:12:20;;;;;;;16.88;7.38;;;;;;;;;;4896557;29;20048;-83
2023/07/24 10:14:49;;;;;;;20.30;7.75;;;;;;;;;;4902851;29;20062;-83
2023/07/24 10:17:24;;;;;;;15.77;8.00;;;;;;;;;;4896936;29;20032;-82
2023/07/24 10:19:50;;;;;;;14.27;8.32;;;;;;;;;;4904902;29;20063;-82
2023/07/24 10:22:19;;;;;;;14.27;7.18;;;;;;;;;;4898250;29;20471;-82
2023/07/24 10:24:45;;;;;;;12.02;4.85;;;;;;;;;;4894790;29;20036;-83
2023/07/24 10:27:12;;;;;;;8.82;4.50;;;;;;;;;;4918390;29;20449;-83
2023/07/24 10:29:38;;;;;;;16.33;5.10;;;;;;;;;;4891374;29;20071;-83
2023/07/24 10:32:05;;;;;;;12.93;5.68;;;;;;;;;;4907502;29;20028;-82
2023/07/24 10:34:38;;;;;;;18.17;7.47;;;;;;;;;;4908447;29;20040;-83
2023/07/24 10:37:07;;;;;;;13.13;5.03;;;;;;;;;;4908585;29;20028;-83
2023/07/24 10:39:39;;;;;;;9.55;4.00;;;;;;;;;;4915443;29;20050;-82
2023/07/24 10:42:11;;;;;;;13.40;4.07;;;;;;;;;;4914689;29;20024;-81
2023/07/24 10:44:37;;;;;;;10.43;5.07;;;;;;;;;;4904700;29;20044;-82
2023/07/24 10:47:04;;;;;;;8.82;3.45;;;;;;;;;;4893994;29;20028;-82
2023/07/24 10:49:30;;;;;;;11.57;4.57;;;;;;;;;;4908957;29;20084;-81
2023/07/24 10:51:57;;;;;;;11.70;4.10;;;;;;;;;;4908988;29;20785;-82
2023/07/24 10:54:23;;;;;;;10.55;4.10;;;;;;;;;;4912963;29;20075;-81
2023/07/24 10:56:49;;;;;;;9.90;4.00;;;;;;;;;;4900330;29;20040;-82
2023/07/24 10:59:15;;;;;;;12.05;4.28;;;;;;;;;;4914917;29;20036;-82
2023/07/24 11:01:41;;;;;;;14.02;4.95;;;;;;;;;;4913416;29;20088;-82
2023/07/24 11:04:07;;;;;;;9.98;4.57;;;;;;;;;;4903259;29;20033;-82
2023/07/24 11:06:35;;;;;;;8.63;3.88;;;;;;;;;;4891585;29;20040;-82
2023/07/24 11:09:01;;;;;;;5.72;2.85;;;;;;;;;;4900367;29;20608;-83
2023/07/24 11:11:34;;;;;;;7.85;3.22;;;;;;;;;;4906271;29;20594;-83
2023/07/24 11:14:01;;;;;;;6.88;3.58;;;;;;;;;;4898492;29;20130;-84
2023/07/24 11:16:30;;;;;;;8.15;3.17;;;;;;;;;;4891778;29;20797;-83
2023/07/24 11:18:56;;;;;;;9.02;3.53;;;;;;;;;;4894616;29;20124;-83
2023/07/24 11:21:25;;;;;;;9.00;3.55;;;;;;;;;;4902258;29;20591;-82
2023/07/24 11:23:55;;;;;;;10.40;4.25;;;;;;;;;;4891349;29;20715;-82
2023/07/24 11:26:21;;;;;;;14.50;5.15;;;;;;;;;;4910439;29;20037;-82
2023/07/24 11:28:47;;;;;;;8.32;3.97;;;;;;;;;;4912715;29;20042;-82
2023/07/24 11:31:15;;;;;;;8.25;3.22;;;;;;;;;;4908444;29;20071;-82
2023/07/24 11:33:41;;;;;;;8.32;3.88;;;;;;;;;;4910742;29;20032;-82
2023/07/24 11:36:08;;;;;;;10.05;4.22;;;;;;;;;;4907942;29;20096;-82
2023/07/24 11:38:35;;;;;;;9.95;3.13;;;;;;;;;;4895550;29;20040;-82
2023/07/24 11:41:01;;;;;;;10.00;3.70;;;;;;;;;;4908879;29;20037;-82
2023/07/24 11:43:27;;;;;;;7.50;3.83;;;;;;;;;;4903441;29;20070;-83
2023/07/24 11:45:54;;;;;;;7.63;3.70;;;;;;;;;;4897557;29;20028;-83
2023/07/24 11:48:21;;;;;;;7.38;3.22;;;;;;;;;;4906409;29;20035;-83
2023/07/24 11:50:48;;;;;;;8.25;3.97;;;;;;;;;;4912910;29;20479;-82
2023/07/24 11:53:40;;;;;;;8.75;3.53;;;;;;;;;;4896151;29;20115;-83
2023/07/24 11:56:14;;;;;;;8.93;4.10;;;;;;;;;;4905752;29;20131;-83
2023/07/24 11:58:40;;;;;;;9.98;3.78;;;;;;;;;;4910392;29;20481;-82
2023/07/24 12:01:06;;;;;;;11.63;3.78;;;;;;;;;;4903694;29;20036;-82
2023/07/24 12:03:32;;;;;;;8.00;3.65;;;;;;;;;;4909925;29;20039;-82
2023/07/24 12:05:58;;;;;;;9.80;2.95;;;;;;;;;;4911790;29;20111;-82
2023/07/24 12:08:31;;;;;;;8.52;3.42;;;;;;;;;;4911223;29;20025;-82
2023/07/24 12:10:57;;;;;;;7.50;3.50;;;;;;;;;;4900557;29;20110;-83
2023/07/24 12:13:23;;;;;;;8.55;3.85;;;;;;;;;;4878795;29;20052;-83
2023/07/24 12:15:49;;;;;;;11.57;3.45;;;;;;;;;;4902215;29;20067;-83
2023/07/24 12:18:15;;;;;;;6.40;2.90;;;;;;;;;;4901124;29;20032;-83
2023/07/24 12:20:41;;;;;;;9.38;3.67;;;;;;;;;;4899967;29;20652;-82
2023/07/24 12:23:07;;;;;;;6.60;3.20;;;;;;;;;;4897826;29;20043;-83
2023/07/24 12:25:33;;;;;;;8.00;3.58;;;;;;;;;;4900034;29;20041;-82
2023/07/24 12:27:59;;;;;;;10.07;3.85;;;;;;;;;;4900981;29;20047;-82
2023/07/24 12:30:25;;;;;;;9.07;3.72;;;;;;;;;;4905916;29;20032;-82
2023/07/24 12:32:51;;;;;;;7.53;3.40;;;;;;;;;;4912126;29;20076;-81
2023/07/24 12:35:18;;;;;;;9.70;3.90;;;;;;;;;;4907226;29;20040;-82
2023/07/24 12:37:45;;;;;;;11.30;4.03;;;;;;;;;;4898997;29;20040;-81
2023/07/24 12:40:11;;;;;;;9.48;3.85;;;;;;;;;;4905511;29;20475;-82
2023/07/24 12:42:37;;;;;;;10.43;3.38;;;;;;;;;;4909659;29;20047;-82
2023/07/24 12:45:03;;;;;;;13.88;3.40;;;;;;;;;;4895589;29;20036;-82
2023/07/24 12:47:30;;;;;;;10.18;4.70;;;;;;;;;;4904738;29;20120;-83
2023/07/24 12:49:57;;;;;;;9.40;3.50;;;;;;;;;;4885740;29;20403;-82
2023/07/24 12:52:24;;;;;;;10.63;3.53;;;;;;;;;;4902248;29;20036;-83
2023/07/24 12:54:50;;;;;;;9.15;4.15;;;;;;;;;;4907511;29;20497;-83
2023/07/24 12:57:16;;;;;;;9.95;4.10;;;;;;;;;;4908293;29;20140;-82
2023/07/24 12:59:42;;;;;;;9.02;3.92;;;;;;;;;;4906498;29;20036;-83
2023/07/24 13:02:08;;;;;;;17.98;3.78;;;;;;;;;;4906018;29;20039;-82
2023/07/24 13:04:34;;;;;;;18.08;10.02;;;;;;;;;;4914116;29;20143;-83
2023/07/24 13:07:00;;;;;;;11.82;5.07;;;;;;;;;;4903527;29;20460;-83
2023/07/24 13:09:26;;;;;;;10.93;4.18;;;;;;;;;;4914799;29;20514;-83
2023/07/24 13:11:54;;;;;;;11.90;4.55;;;;;;;;;;4901134;29;20040;-83
2023/07/24 13:14:20;;;;;;;9.07;3.83;;;;;;;;;;4909398;29;20028;-82
2023/07/24 13:16:46;;;;;;;12.52;4.32;;;;;;;;;;4907968;29;20063;-83
2023/07/24 13:19:12;;;;;;;8.70;4.40;;;;;;;;;;4902922;29;20036;-83
2023/07/24 13:21:39;;;;;;;15.00;5.53;;;;;;;;;;4905236;29;20399;-82
2023/07/24 13:24:05;;;;;;;13.55;4.60;;;;;;;;;;4913005;29;20028;-82
2023/07/24 13:26:31;;;;;;;11.23;3.97;;;;;;;;;;4913573;29;20044;-82
2023/07/24 13:28:58;;;;;;;8.35;3.58;;;;;;;;;;4913907;29;20865;-82
2023/07/24 13:31:24;;;;;;;11.80;4.93;;;;;;;;;;4913103;29;20079;-82
2023/07/24 13:33:50;;;;;;;11.95;4.80;;;;;;;;;;4903642;29;20096;-82
2023/07/24 13:36:16;;;;;;;9.35;4.20;;;;;;;;;;4920302;29;20957;-82
2023/07/24 13:38:42;;;;;;;9.88;4.90;;;;;;;;;;4885921;29;20500;-82
2023/07/24 13:41:08;;;;;;;11.60;4.18;;;;;;;;;;4913260;29;20495;-82
2023/07/24 13:43:35;;;;;;;10.73;4.68;;;;;;;;;;4913423;29;20357;-82
2023/07/24 13:46:04;;;;;;;11.68;4.78;;;;;;;;;;4900273;29;20429;-82
2023/07/24 13:48:30;;;;;;;17.92;5.78;;;;;;;;;;4904189;29;20024;-82
2023/07/24 13:50:57;;;;;;;11.80;5.47;;;;;;;;;;4904492;29;20087;-83
2023/07/24 13:53:23;;;;;;;23.50;7.97;;;;;;;;;;4899162;29;20480;-83
2023/07/24 13:55:49;;;;;;;34.30;10.82;;;;;;;;;;4887095;29;20051;-84
2023/07/24 13:58:15;;;;;;;26.25;6.95;;;;;;;;;;4898357;29;20041;-87
2023/07/24 14:00:41;;;;;;;18.52;4.93;;;;;;;;;;4903158;29;20032;-86
2023/07/24 14:03:07;;;;;;;13.15;2.78;;;;;;;;;;4882657;29;20184;-85
2023/07/24 14:05:34;;;;;;;5.22;1.58;;;;;;;;;;4911847;29;20079;-84
2023/07/24 14:08:00;;;;;;;3.92;1.45;;;;;;;;;;4892887;29;20064;-87
2023/07/24 14:10:26;;;;;;;3.88;1.50;;;;;;;;;;4892283;29;20479;-84
2023/07/24 14:12:52;;;;;;;9.00;3.40;;;;;;;;;;4895162;29;20060;-84
2023/07/24 14:15:18;;;;;;;7.45;3.83;;;;;;;;;;4899891;29;20052;-83
2023/07/24 14:17:44;;;;;;;11.60;4.32;;;;;;;;;;4894410;29;20036;-84
2023/07/24 14:20:10;;;;;;;8.88;3.50;;;;;;;;;;4883632;29;20041;-84
2023/07/24 14:22:37;;;;;;;7.22;2.70;;;;;;;;;;4904690;29;20748;-84
2023/07/24 14:25:03;;;;;;;8.00;3.38;;;;;;;;;;4883144;29;20032;-83
2023/07/24 14:27:29;;;;;;;7.85;3.03;;;;;;;;;;4903503;29;20391;-83
2023/07/24 14:29:55;;;;;;;8.38;3.40;;;;;;;;;;4909518;29;20043;-84
2023/07/24 14:32:21;;;;;;;10.25;3.33;;;;;;;;;;4907352;29;20372;-84